Avoca, Wisconsin
Current Conditions -  °F | °C
As of 11:56 AM on Monday 26 Jan 2015 (Local Time) from KLNR Reporting Station
Overcast Overcast  
Wind Chill: 17°   Ceiling: 1400
Heat Index: 23°   Visibility: 10mi
Dew Point: 18°   Wind: 5mph
Humidity: 81%   Direction: 130°SE
Pressure: 29.83"   Gusts: NA
Location:  43.18°N, 90.32°W
Report Text: KLNR 261756Z AUTO 13004KT 10SM OVC014 M05/M08 A2983 RMK AO2 SNE12 SLP107 P0000 60006 T10501078 11050 21083 58019
Loading
Personal Weather Stations






























Interactive Weather Map New forecast layout! Learn more

10-Day Weather Forecast

Advertisements
Track Severe Weather on mobile